Time,TemperatureF,DewpointF,PressureIn,WindDirection,WindDirectionDegrees,WindSpeedMPH,WindSpeedGustMPH,Humidity,HourlyPrecipIn,Conditions,Clouds,dailyrainin,SolarRadiationWatts/m^2,SoftwareType,DateUTC
2013-01-26 00:12:00,30.9,20.0,30.08,West,267,5.0,-999.0,64,-99.99,,,0.00,0,weatherlink.com 1.10,2013-01-26 07:12:00,
2013-01-26 00:26:00,31.8,20.0,30.08,West,259,4.0,-999.0,61,-99.99,,,0.00,0,weatherlink.com 1.10,2013-01-26 07:26:00,
2013-01-26 00:42:00,32.3,20.0,30.07,West,269,3.0,-999.0,60,-99.99,,,0.00,0,weatherlink.com 1.10,2013-01-26 07:42:00,
2013-01-26 00:56:00,32.4,19.0,30.07,West,276,0.0,-999.0,59,-99.99,,,0.00,0,weatherlink.com 1.10,2013-01-26 07:56:00,
2013-01-26 01:11:00,33.7,20.0,30.07,WSW,237,6.0,-999.0,57,-99.99,,,0.00,0,weatherlink.com 1.10,2013-01-26 08:11:00,
2013-01-26 01:27:00,34.0,20.0,30.05,SW,235,0.0,-999.0,56,-99.99,,,0.00,0,weatherlink.com 1.10,2013-01-26 08:27:00,
2013-01-26 01:41:00,34.2,20.0,30.06,WSW,244,0.0,-999.0,56,-99.99,,,0.00,0,weatherlink.com 1.10,2013-01-26 08:41:00,
2013-01-26 01:56:00,33.5,20.0,30.05,WSW,244,0.0,-999.0,57,-99.99,,,0.00,0,weatherlink.com 1.10,2013-01-26 08:56:00,
2013-01-26 02:11:00,33.0,19.0,30.05,SW,217,0.0,-999.0,57,-99.99,,,0.00,0,weatherlink.com 1.10,2013-01-26 09:11:00,
2013-01-26 02:26:00,33.6,20.0,30.05,SSW,202,0.0,-999.0,57,-99.99,,,0.00,0,weatherlink.com 1.10,2013-01-26 09:26:00,
2013-01-26 02:41:00,34.0,20.0,30.05,SSW,202,0.0,-999.0,56,-99.99,,,0.00,0,weatherlink.com 1.10,2013-01-26 09:41:00,
2013-01-26 02:56:00,30.4,19.0,30.04,South,172,4.0,-999.0,62,-99.99,,,0.00,0,weatherlink.com 1.10,2013-01-26 09:56:00,
2013-01-26 03:11:00,28.9,18.0,30.04,SSE,155,5.0,-999.0,64,-99.99,,,0.00,0,weatherlink.com 1.10,2013-01-26 10:11:00,
2013-01-26 03:27:00,29.6,18.0,30.03,SSE,157,4.0,-999.0,63,-99.99,,,0.00,0,weatherlink.com 1.10,2013-01-26 10:27:00,
2013-01-26 03:41:00,28.7,17.0,30.03,SSE,168,0.0,-999.0,63,-99.99,,,0.00,0,weatherlink.com 1.10,2013-01-26 10:41:00,
2013-01-26 03:57:00,28.9,18.0,30.03,SSE,168,0.0,-999.0,63,-99.99,,,0.00,0,weatherlink.com 1.10,2013-01-26 10:57:00,
2013-01-26 04:11:00,29.5,18.0,30.03,SSE,168,0.0,-999.0,62,-99.99,,,0.00,0,weatherlink.com 1.10,2013-01-26 11:11:00,
2013-01-26 04:26:00,28.7,17.0,30.03,SSE,168,0.0,-999.0,63,-99.99,,,0.00,0,weatherlink.com 1.10,2013-01-26 11:26:00,
2013-01-26 04:41:00,29.0,18.0,30.02,SSE,157,0.0,-999.0,63,-99.99,,,0.00,0,weatherlink.com 1.10,2013-01-26 11:41:00,
2013-01-26 04:57:00,30.5,18.0,30.02,SSE,159,0.0,-999.0,60,-99.99,,,0.00,0,weatherlink.com 1.10,2013-01-26 11:57:00,
2013-01-26 05:12:00,32.1,18.0,30.02,SSE,155,0.0,-999.0,57,-99.99,,,0.00,0,weatherlink.com 1.10,2013-01-26 12:12:00,
2013-01-26 05:27:00,22.7,15.0,30.03,SSE,167,4.0,-999.0,71,-99.99,,,0.00,0,weatherlink.com 1.10,2013-01-26 12:27:00,
2013-01-26 05:42:00,20.4,14.0,30.03,SSE,148,5.0,-999.0,77,-99.99,,,0.00,0,weatherlink.com 1.10,2013-01-26 12:42:00,
2013-01-26 05:57:00,23.2,16.0,30.03,SE,138,2.0,-999.0,74,-99.99,,,0.00,0,weatherlink.com 1.10,2013-01-26 12:57:00,
2013-01-26 06:12:00,23.7,17.0,30.03,ESE,123,5.0,-999.0,75,-99.99,,,0.00,0,weatherlink.com 1.10,2013-01-26 13:12:00,
2013-01-26 06:27:00,25.7,17.0,30.03,SSE,158,6.0,-999.0,69,-99.99,,,0.00,0,weatherlink.com 1.10,2013-01-26 13:27:00,
2013-01-26 06:42:00,24.3,16.0,30.02,SSE,163,2.0,-999.0,72,-99.99,,,0.00,0,weatherlink.com 1.10,2013-01-26 13:42:00,
2013-01-26 06:57:00,26.5,17.0,30.02,SSE,150,4.0,-999.0,68,-99.99,,,0.00,0,weatherlink.com 1.10,2013-01-26 13:57:00,
2013-01-26 07:12:00,25.9,16.0,30.02,SSE,151,0.0,-999.0,66,-99.99,,,0.00,0,weatherlink.com 1.10,2013-01-26 14:12:00,
2013-01-26 07:27:00,25.0,15.0,30.02,NNW,348,1.0,-999.0,66,-99.99,,,0.00,0,weatherlink.com 1.10,2013-01-26 14:27:00,
2013-01-26 07:42:00,18.0,11.0,30.03,North,5,7.0,-999.0,75,-99.99,,,0.00,9,weatherlink.com 1.10,2013-01-26 14:42:00,
2013-01-26 07:59:00,15.5,11.0,30.03,NNE,30,5.0,-999.0,82,-99.99,,,0.00,19,weatherlink.com 1.10,2013-01-26 14:59:00,
2013-01-26 08:12:00,16.7,13.0,30.03,North,11,4.0,-999.0,85,-99.99,,,0.00,49,weatherlink.com 1.10,2013-01-26 15:12:00,
2013-01-26 08:27:00,17.8,14.0,30.03,North,360,2.0,-999.0,85,-99.99,,,0.00,53,weatherlink.com 1.10,2013-01-26 15:27:00,
2013-01-26 08:42:00,18.6,15.0,30.04,NNE,13,7.0,-999.0,85,-99.99,,,0.00,63,weatherlink.com 1.10,2013-01-26 15:42:00,
2013-01-26 08:57:00,18.5,15.0,30.05,NNE,18,4.0,-999.0,85,-99.99,,,0.00,40,weatherlink.com 1.10,2013-01-26 15:57:00,
2013-01-26 09:12:00,18.5,15.0,30.05,NNW,336,1.0,-999.0,85,-99.99,,,0.00,60,weatherlink.com 1.10,2013-01-26 16:12:00,
2013-01-26 09:27:00,19.4,16.0,30.05,North,355,6.0,-999.0,85,-99.99,,,0.00,114,weatherlink.com 1.10,2013-01-26 16:27:00,
2013-01-26 09:42:00,21.1,17.0,30.04,NE,55,6.0,-999.0,84,-99.99,,,0.00,146,weatherlink.com 1.10,2013-01-26 16:42:00,
2013-01-26 09:57:00,22.8,18.0,30.05,NNE,20,3.0,-999.0,83,-99.99,,,0.00,218,weatherlink.com 1.10,2013-01-26 16:57:00,
2013-01-26 10:12:00,24.1,19.0,30.04,NE,50,6.0,-999.0,81,-99.99,,,0.00,272,weatherlink.com 1.10,2013-01-26 17:12:00,
2013-01-26 10:27:00,29.9,22.0,30.05,NW,307,0.0,-999.0,73,-99.99,,,0.00,417,weatherlink.com 1.10,2013-01-26 17:27:00,
2013-01-26 10:42:00,31.3,23.0,30.04,NNE,29,3.0,-999.0,70,-99.99,,,0.00,494,weatherlink.com 1.10,2013-01-26 17:42:00,
2013-01-26 10:57:00,32.3,24.0,30.04,West,265,3.0,-999.0,70,-99.99,,,0.00,473,weatherlink.com 1.10,2013-01-26 17:57:00,
2013-01-26 11:13:00,36.6,25.0,30.04,NNW,341,0.0,-999.0,62,-99.99,,,0.00,485,weatherlink.com 1.10,2013-01-26 18:13:00,
2013-01-26 11:27:00,36.4,24.0,30.03,NNW,340,3.0,-999.0,61,-99.99,,,0.00,482,weatherlink.com 1.10,2013-01-26 18:27:00,
2013-01-26 11:42:00,35.6,24.0,30.03,NNE,13,2.0,-999.0,63,-99.99,,,0.00,510,weatherlink.com 1.10,2013-01-26 18:42:00,
2013-01-26 11:58:00,36.9,25.0,30.01,NNW,338,0.0,-999.0,62,-99.99,,,0.00,469,weatherlink.com 1.10,2013-01-26 18:58:00,
2013-01-26 12:13:00,37.6,25.0,30.00,NNE,27,4.0,-999.0,62,-99.99,,,0.00,475,weatherlink.com 1.10,2013-01-26 19:13:00,
2013-01-26 12:28:00,40.4,26.0,29.99,North,355,6.0,-999.0,57,-99.99,,,0.00,541,weatherlink.com 1.10,2013-01-26 19:28:00,
2013-01-26 12:43:00,42.0,26.0,29.98,NNE,14,5.0,-999.0,54,-99.99,,,0.00,438,weatherlink.com 1.10,2013-01-26 19:43:00,
2013-01-26 12:58:00,41.7,26.0,29.96,North,360,0.0,-999.0,53,-99.99,,,0.00,450,weatherlink.com 1.10,2013-01-26 19:58:00,
2013-01-26 13:13:00,41.2,26.0,29.94,NE,40,3.0,-999.0,55,-99.99,,,0.00,392,weatherlink.com 1.10,2013-01-26 20:13:00,
2013-01-26 13:28:00,40.4,27.0,29.93,NE,36,0.0,-999.0,59,-99.99,,,0.00,325,weatherlink.com 1.10,2013-01-26 20:28:00,
2013-01-26 13:43:00,39.9,27.0,29.92,North,9,2.0,-999.0,60,-99.99,,,0.00,320,weatherlink.com 1.10,2013-01-26 20:43:00,
2013-01-26 13:58:00,40.4,27.0,29.92,NNE,30,0.0,-999.0,60,-99.99,,,0.00,325,weatherlink.com 1.10,2013-01-26 20:58:00,
2013-01-26 14:13:00,42.4,28.0,29.91,NNE,18,0.0,-999.0,58,-99.99,,,0.00,264,weatherlink.com 1.10,2013-01-26 21:13:00,
2013-01-26 14:28:00,41.0,27.0,29.91,NNE,27,4.0,-999.0,59,-99.99,,,0.00,211,weatherlink.com 1.10,2013-01-26 21:28:00,
2013-01-26 14:43:00,39.6,27.0,29.92,North,10,0.0,-999.0,62,-99.99,,,0.00,213,weatherlink.com 1.10,2013-01-26 21:43:00,
2013-01-26 14:58:00,39.2,28.0,29.91,NNE,14,0.0,-999.0,64,-99.99,,,0.00,188,weatherlink.com 1.10,2013-01-26 21:58:00,
2013-01-26 15:13:00,38.3,27.0,29.92,NNE,15,0.0,-999.0,64,-99.99,,,0.00,186,weatherlink.com 1.10,2013-01-26 22:13:00,
2013-01-26 15:28:00,36.2,27.0,29.91,SSE,148,0.0,-999.0,68,-99.99,,,0.00,155,weatherlink.com 1.10,2013-01-26 22:28:00,
2013-01-26 15:43:00,37.8,28.0,29.90,NNE,31,1.0,-999.0,68,-99.99,,,0.00,134,weatherlink.com 1.10,2013-01-26 22:43:00,
2013-01-26 15:58:00,38.4,28.0,29.89,North,5,0.0,-999.0,67,-99.99,,,0.00,107,weatherlink.com 1.10,2013-01-26 22:58:00,
2013-01-26 16:13:00,38.9,28.0,29.88,North,5,0.0,-999.0,66,-99.99,,,0.00,84,weatherlink.com 1.10,2013-01-26 23:13:00,
2013-01-26 16:28:00,38.2,28.0,29.88,NE,44,0.0,-999.0,67,-99.99,,,0.00,58,weatherlink.com 1.10,2013-01-26 23:28:00,
2013-01-26 16:43:00,37.0,28.0,29.87,NE,44,0.0,-999.0,69,-99.99,,,0.00,32,weatherlink.com 1.10,2013-01-26 23:43:00,
2013-01-26 16:58:00,36.8,28.0,29.87,NE,44,0.0,-999.0,70,-99.99,,,0.00,14,weatherlink.com 1.10,2013-01-26 23:58:00,
2013-01-26 17:13:00,36.3,27.0,29.87,NE,44,0.0,-999.0,70,-99.99,,,0.00,0,weatherlink.com 1.10,2013-01-27 00:13:00,
2013-01-26 17:29:00,35.9,27.0,29.87,NE,44,0.0,-999.0,71,-99.99,,,0.00,0,weatherlink.com 1.10,2013-01-27 00:29:00,
2013-01-26 17:44:00,35.1,27.0,29.87,NE,44,0.0,-999.0,71,-99.99,,,0.00,0,weatherlink.com 1.10,2013-01-27 00:44:00,
2013-01-26 17:59:00,34.5,26.0,29.87,NE,44,0.0,-999.0,72,-99.99,,,0.00,0,weatherlink.com 1.10,2013-01-27 00:59:00,
2013-01-26 18:14:00,33.9,26.0,29.87,NE,44,0.0,-999.0,72,-99.99,,,0.00,0,weatherlink.com 1.10,2013-01-27 01:14:00,
2013-01-26 18:28:00,33.5,26.0,29.87,NE,44,0.0,-999.0,73,-99.99,,,0.00,0,weatherlink.com 1.10,2013-01-27 01:28:00,
2013-01-26 18:44:00,33.4,26.0,29.87,NE,44,0.0,-999.0,74,-99.99,,,0.00,0,weatherlink.com 1.10,2013-01-27 01:44:00,
2013-01-26 18:58:00,33.5,26.0,29.87,NNE,16,0.0,-999.0,74,-99.99,,,0.00,0,weatherlink.com 1.10,2013-01-27 01:58:00,
2013-01-26 19:14:00,33.9,26.0,29.86,NNE,16,0.0,-999.0,73,-99.99,,,0.00,0,weatherlink.com 1.10,2013-01-27 02:14:00,
2013-01-26 19:28:00,33.9,26.0,29.86,NNE,16,0.0,-999.0,72,-99.99,,,0.00,0,weatherlink.com 1.10,2013-01-27 02:28:00,
2013-01-26 19:44:00,33.9,26.0,29.86,NNE,16,0.0,-999.0,72,-99.99,,,0.00,0,weatherlink.com 1.10,2013-01-27 02:44:00,
2013-01-26 19:59:00,34.0,26.0,29.85,NNE,16,0.0,-999.0,72,-99.99,,,0.00,0,weatherlink.com 1.10,2013-01-27 02:59:00,
2013-01-26 20:14:00,34.1,26.0,29.83,East,94,0.0,-999.0,72,-99.99,,,0.00,0,weatherlink.com 1.10,2013-01-27 03:14:00,
2013-01-26 20:29:00,33.5,26.0,29.84,SW,227,5.0,-999.0,74,-99.99,,,0.00,0,weatherlink.com 1.10,2013-01-27 03:29:00,
2013-01-26 20:44:00,32.4,26.0,29.84,SW,229,0.0,-999.0,76,-99.99,,,0.00,0,weatherlink.com 1.10,2013-01-27 03:44:00,
2013-01-26 20:59:00,31.7,26.0,29.83,SW,229,0.0,-999.0,78,-99.99,,,0.00,0,weatherlink.com 1.10,2013-01-27 03:59:00,
2013-01-26 21:13:00,31.7,26.0,29.83,SW,229,0.0,-999.0,78,-99.99,,,0.00,0,weatherlink.com 1.10,2013-01-27 04:13:00,
2013-01-26 21:29:00,32.2,26.0,29.83,WSW,237,0.0,-999.0,77,-99.99,,,0.00,0,weatherlink.com 1.10,2013-01-27 04:29:00,
2013-01-26 21:43:00,31.8,26.0,29.82,WSW,247,0.0,-999.0,78,-99.99,,,0.00,0,weatherlink.com 1.10,2013-01-27 04:43:00,
2013-01-26 21:58:00,30.9,25.0,29.82,NW,321,0.0,-999.0,80,-99.99,,,0.00,0,weatherlink.com 1.10,2013-01-27 04:58:00,
2013-01-26 22:14:00,30.3,25.0,29.82,NW,321,0.0,-999.0,82,-99.99,,,0.00,0,weatherlink.com 1.10,2013-01-27 05:14:00,
2013-01-26 22:29:00,30.3,25.0,29.82,NW,321,0.0,-999.0,82,-99.99,,,0.00,0,weatherlink.com 1.10,2013-01-27 05:29:00,
2013-01-26 22:44:00,30.6,26.0,29.83,NW,321,0.0,-999.0,82,-99.99,,,0.00,0,weatherlink.com 1.10,2013-01-27 05:44:00,
2013-01-26 22:59:00,30.9,26.0,29.83,NW,321,0.0,-999.0,82,-99.99,,,0.00,0,weatherlink.com 1.10,2013-01-27 05:59:00,
2013-01-26 23:14:00,30.4,26.0,29.82,NW,321,0.0,-999.0,82,-99.99,,,0.00,0,weatherlink.com 1.10,2013-01-27 06:14:00,
2013-01-26 23:29:00,31.0,26.0,29.82,NW,321,0.0,-999.0,81,-99.99,,,0.00,0,weatherlink.com 1.10,2013-01-27 06:29:00,
2013-01-26 23:44:00,31.0,26.0,29.82,NNW,341,3.0,-999.0,81,-99.99,,,0.00,0,weatherlink.com 1.10,2013-01-27 06:44:00,
2013-01-26 23:59:00,30.2,25.0,29.82,NNE,15,2.0,-999.0,82,-99.99,,,0.00,0,weatherlink.com 1.10,2013-01-27 06:59:00,